Airport View

Enter AWOS ICAO identifier for current METAR.

ex. KFNL

KOZS 300450Z AUTO 00000KT 10SM CLR 02/00 A3019 RMK AO2

30 Oct 2020 04:54

Frequency: 120.225

Phone: 573-317-0412

Other Area AWOS: KAIZ - KLBO - KTBN - KRAW

TAF KSGF 292320Z 3000/3024 33009KT P6SM SKC FM300900 27004KT P6SM SKC FM301200 19006KT P6SM SKC